sensor_id;sensor_type;location;lat;lon;timestamp;temperature;humidity
75489;HTU21D;64069;46.396;48.102;2023-06-26T00:01:48;18.47;68.68
75489;HTU21D;64069;46.396;48.102;2023-06-26T00:04:20;18.41;68.76
75489;HTU21D;64069;46.396;48.102;2023-06-26T00:06:53;18.38;68.71
75489;HTU21D;64069;46.396;48.102;2023-06-26T00:09:18;18.36;68.83
75489;HTU21D;64069;46.396;48.102;2023-06-26T00:11:50;18.30;68.92
75489;HTU21D;64069;46.396;48.102;2023-06-26T00:14:25;18.27;69.00
75489;HTU21D;64069;46.396;48.102;2023-06-26T00:16:52;18.23;69.01
75489;HTU21D;64069;46.396;48.102;2023-06-26T00:19:24;18.19;69.20
75489;HTU21D;64069;46.396;48.102;2023-06-26T00:21:57;18.12;69.42
75489;HTU21D;64069;46.396;48.102;2023-06-26T00:24:22;18.08;69.65
75489;HTU21D;64069;46.396;48.102;2023-06-26T00:26:54;18.04;69.67
75489;HTU21D;64069;46.396;48.102;2023-06-26T00:29:27;17.99;69.81
75489;HTU21D;64069;46.396;48.102;2023-06-26T00:31:52;17.95;69.79
75489;HTU21D;64069;46.396;48.102;2023-06-26T00:34:25;17.93;69.91
75489;HTU21D;64069;46.396;48.102;2023-06-26T00:36:57;17.89;70.07
75489;HTU21D;64069;46.396;48.102;2023-06-26T00:40:10;17.81;70.35
75489;HTU21D;64069;46.396;48.102;2023-06-26T00:42:56;17.74;70.46
75489;HTU21D;64069;46.396;48.102;2023-06-26T00:45:29;17.67;70.64
75489;HTU21D;64069;46.396;48.102;2023-06-26T00:47:54;17.64;70.75
75489;HTU21D;64069;46.396;48.102;2023-06-26T00:50:28;17.62;70.87
75489;HTU21D;64069;46.396;48.102;2023-06-26T00:53:01;17.60;70.84
75489;HTU21D;64069;46.396;48.102;2023-06-26T00:55:47;17.56;70.77
75489;HTU21D;64069;46.396;48.102;2023-06-26T00:58:23;17.52;70.91
75489;HTU21D;64069;46.396;48.102;2023-06-26T01:00:57;17.50;70.95
75489;HTU21D;64069;46.396;48.102;2023-06-26T01:03:30;17.49;70.99
75489;HTU21D;64069;46.396;48.102;2023-06-26T01:05:57;17.48;70.97
75489;HTU21D;64069;46.396;48.102;2023-06-26T01:08:31;17.47;70.77
75489;HTU21D;64069;46.396;48.102;2023-06-26T01:11:04;17.49;70.71
75489;HTU21D;64069;46.396;48.102;2023-06-26T01:13:30;17.52;70.81
75489;HTU21D;64069;46.396;48.102;2023-06-26T01:16:04;17.51;71.01
75489;HTU21D;64069;46.396;48.102;2023-06-26T01:18:38;17.50;70.93
75489;HTU21D;64069;46.396;48.102;2023-06-26T01:21:18;17.48;70.97
75489;HTU21D;64069;46.396;48.102;2023-06-26T01:24:09;17.51;70.95
75489;HTU21D;64069;46.396;48.102;2023-06-26T01:26:50;17.61;70.53
75489;HTU21D;64069;46.396;48.102;2023-06-26T01:29:25;17.79;69.99
75489;HTU21D;64069;46.396;48.102;2023-06-26T01:31:51;18.10;69.28
75489;HTU21D;64069;46.396;48.102;2023-06-26T01:34:24;18.37;68.48
75489;HTU21D;64069;46.396;48.102;2023-06-26T01:36:57;18.55;67.81
75489;HTU21D;64069;46.396;48.102;2023-06-26T01:39:22;18.66;67.54
75489;HTU21D;64069;46.396;48.102;2023-06-26T01:41:54;18.74;67.32
75489;HTU21D;64069;46.396;48.102;2023-06-26T01:44:29;18.81;67.14
75489;HTU21D;64069;46.396;48.102;2023-06-26T01:47:03;18.84;66.86
75489;HTU21D;64069;46.396;48.102;2023-06-26T01:50:09;18.89;66.70
75489;HTU21D;64069;46.396;48.102;2023-06-26T01:53:02;19.00;66.38
75489;HTU21D;64069;46.396;48.102;2023-06-26T01:55:59;19.20;65.72
75489;HTU21D;64069;46.396;48.102;2023-06-26T01:58:33;19.36;65.27
75489;HTU21D;64069;46.396;48.102;2023-06-26T02:01:08;19.51;64.69
75489;HTU21D;64069;46.396;48.102;2023-06-26T02:03:34;19.62;64.11
75489;HTU21D;64069;46.396;48.102;2023-06-26T02:06:07;19.71;63.58
75489;HTU21D;64069;46.396;48.102;2023-06-26T02:08:39;19.84;63.13
75489;HTU21D;64069;46.396;48.102;2023-06-26T02:11:05;20.06;62.54
75489;HTU21D;64069;46.396;48.102;2023-06-26T02:13:39;20.28;61.74
75489;HTU21D;64069;46.396;48.102;2023-06-26T02:16:12;20.39;61.06
75489;HTU21D;64069;46.396;48.102;2023-06-26T02:18:41;20.43;60.67
75489;HTU21D;64069;46.396;48.102;2023-06-26T02:21:14;20.48;60.34
75489;HTU21D;64069;46.396;48.102;2023-06-26T02:23:46;20.68;59.70
75489;HTU21D;64069;46.396;48.102;2023-06-26T02:26:12;20.88;59.22
75489;HTU21D;64069;46.396;48.102;2023-06-26T02:28:45;21.06;58.48
75489;HTU21D;64069;46.396;48.102;2023-06-26T02:31:18;21.13;58.16
75489;HTU21D;64069;46.396;48.102;2023-06-26T02:33:44;21.29;57.84
75489;HTU21D;64069;46.396;48.102;2023-06-26T02:36:17;21.44;57.16
75489;HTU21D;64069;46.396;48.102;2023-06-26T02:38:50;21.55;56.67
75489;HTU21D;64069;46.396;48.102;2023-06-26T02:41:16;21.63;56.17
75489;HTU21D;64069;46.396;48.102;2023-06-26T02:43:50;21.89;55.74
75489;HTU21D;64069;46.396;48.102;2023-06-26T02:46:23;22.40;54.52
75489;HTU21D;64069;46.396;48.102;2023-06-26T02:48:49;22.44;53.83
75489;HTU21D;64069;46.396;48.102;2023-06-26T02:51:22;22.28;53.86
75489;HTU21D;64069;46.396;48.102;2023-06-26T02:53:57;21.70;54.92
75489;HTU21D;64069;46.396;48.102;2023-06-26T02:56:44;21.20;55.87
75489;HTU21D;64069;46.396;48.102;2023-06-26T02:59:22;20.80;56.58
75489;HTU21D;64069;46.396;48.102;2023-06-26T03:01:56;20.63;56.91
75489;HTU21D;64069;46.396;48.102;2023-06-26T03:04:28;20.58;57.02
75489;HTU21D;64069;46.396;48.102;2023-06-26T03:07:01;20.62;56.82
75489;HTU21D;64069;46.396;48.102;2023-06-26T03:09:35;20.72;56.71
75489;HTU21D;64069;46.396;48.102;2023-06-26T03:12:01;20.77;56.45
75489;HTU21D;64069;46.396;48.102;2023-06-26T03:14:34;20.70;56.55
75489;HTU21D;64069;46.396;48.102;2023-06-26T03:17:06;20.69;56.68
75489;HTU21D;64069;46.396;48.102;2023-06-26T03:19:34;20.68;56.67
75489;HTU21D;64069;46.396;48.102;2023-06-26T03:22:17;20.61;56.72
75489;HTU21D;64069;46.396;48.102;2023-06-26T03:24:50;20.48;56.87
75489;HTU21D;64069;46.396;48.102;2023-06-26T03:27:16;20.34;57.03
75489;HTU21D;64069;46.396;48.102;2023-06-26T03:29:49;20.28;57.04
75489;HTU21D;64069;46.396;48.102;2023-06-26T03:32:22;20.41;56.63
75489;HTU21D;64069;46.396;48.102;2023-06-26T03:34:56;20.53;56.28
75489;HTU21D;64069;46.396;48.102;2023-06-26T03:37:22;20.69;55.81
75489;HTU21D;64069;46.396;48.102;2023-06-26T03:39:55;20.78;55.41
75489;HTU21D;64069;46.396;48.102;2023-06-26T03:42:27;20.75;55.35
75489;HTU21D;64069;46.396;48.102;2023-06-26T03:44:54;20.68;55.44
75489;HTU21D;64069;46.396;48.102;2023-06-26T03:47:19;20.64;55.48
75489;HTU21D;64069;46.396;48.102;2023-06-26T03:49:48;20.63;55.40
75489;HTU21D;64069;46.396;48.102;2023-06-26T03:52:21;20.68;55.29
75489;HTU21D;64069;46.396;48.102;2023-06-26T03:54:47;20.66;55.22
75489;HTU21D;64069;46.396;48.102;2023-06-26T03:57:16;20.64;55.29
75489;HTU21D;64069;46.396;48.102;2023-06-26T03:59:42;20.61;55.28
75489;HTU21D;64069;46.396;48.102;2023-06-26T04:02:08;20.56;55.44
75489;HTU21D;64069;46.396;48.102;2023-06-26T04:04:33;20.56;55.47
75489;HTU21D;64069;46.396;48.102;2023-06-26T04:07:00;20.53;55.47
75489;HTU21D;64069;46.396;48.102;2023-06-26T04:09:26;20.48;55.67
75489;HTU21D;64069;46.396;48.102;2023-06-26T04:11:52;20.49;55.63
75489;HTU21D;64069;46.396;48.102;2023-06-26T04:14:18;20.45;55.65
75489;HTU21D;64069;46.396;48.102;2023-06-26T04:16:44;20.41;55.67
75489;HTU21D;64069;46.396;48.102;2023-06-26T04:19:11;20.43;55.48
75489;HTU21D;64069;46.396;48.102;2023-06-26T04:21:37;20.44;55.23
75489;HTU21D;64069;46.396;48.102;2023-06-26T04:24:03;20.50;54.94
75489;HTU21D;64069;46.396;48.102;2023-06-26T04:26:29;20.51;54.91
75489;HTU21D;64069;46.396;48.102;2023-06-26T04:28:55;20.58;54.84
75489;HTU21D;64069;46.396;48.102;2023-06-26T04:31:21;20.71;54.69
75489;HTU21D;64069;46.396;48.102;2023-06-26T04:33:47;20.92;54.38
75489;HTU21D;64069;46.396;48.102;2023-06-26T04:36:17;21.15;53.96
75489;HTU21D;64069;46.396;48.102;2023-06-26T04:38:43;21.24;53.78
75489;HTU21D;64069;46.396;48.102;2023-06-26T04:41:09;21.37;53.48
75489;HTU21D;64069;46.396;48.102;2023-06-26T04:43:35;21.54;53.30
75489;HTU21D;64069;46.396;48.102;2023-06-26T04:46:04;21.80;52.55
75489;HTU21D;64069;46.396;48.102;2023-06-26T04:48:30;21.88;52.41
75489;HTU21D;64069;46.396;48.102;2023-06-26T04:50:56;21.90;52.30
75489;HTU21D;64069;46.396;48.102;2023-06-26T04:53:24;21.91;52.40
75489;HTU21D;64069;46.396;48.102;2023-06-26T04:55:51;21.90;52.38
75489;HTU21D;64069;46.396;48.102;2023-06-26T04:58:17;21.79;52.27
75489;HTU21D;64069;46.396;48.102;2023-06-26T05:00:43;21.66;52.35
75489;HTU21D;64069;46.396;48.102;2023-06-26T05:03:11;21.59;52.39
75489;HTU21D;64069;46.396;48.102;2023-06-26T05:05:37;21.47;52.48
75489;HTU21D;64069;46.396;48.102;2023-06-26T05:08:24;21.38;52.55
75489;HTU21D;64069;46.396;48.102;2023-06-26T05:10:52;21.35;52.62
75489;HTU21D;64069;46.396;48.102;2023-06-26T05:13:25;21.44;52.48
75489;HTU21D;64069;46.396;48.102;2023-06-26T05:15:52;21.59;52.11
75489;HTU21D;64069;46.396;48.102;2023-06-26T05:18:18;21.62;51.99
75489;HTU21D;64069;46.396;48.102;2023-06-26T05:20:45;21.70;51.67
75489;HTU21D;64069;46.396;48.102;2023-06-26T05:23:11;21.82;51.46
75489;HTU21D;64069;46.396;48.102;2023-06-26T05:25:38;21.93;51.29
75489;HTU21D;64069;46.396;48.102;2023-06-26T05:28:05;22.12;51.06
75489;HTU21D;64069;46.396;48.102;2023-06-26T05:30:31;22.20;50.87
75489;HTU21D;64069;46.396;48.102;2023-06-26T05:33:01;22.32;50.53
75489;HTU21D;64069;46.396;48.102;2023-06-26T05:35:30;22.35;50.25
75489;HTU21D;64069;46.396;48.102;2023-06-26T05:37:57;22.36;50.20
75489;HTU21D;64069;46.396;48.102;2023-06-26T05:40:51;22.53;50.04
75489;HTU21D;64069;46.396;48.102;2023-06-26T05:43:20;22.68;49.56
75489;HTU21D;64069;46.396;48.102;2023-06-26T05:45:49;22.71;49.33
75489;HTU21D;64069;46.396;48.102;2023-06-26T05:48:21;22.75;49.15
75489;HTU21D;64069;46.396;48.102;2023-06-26T05:50:50;22.87;49.05
75489;HTU21D;64069;46.396;48.102;2023-06-26T05:53:17;22.94;48.79
75489;HTU21D;64069;46.396;48.102;2023-06-26T05:55:43;22.99;48.61
75489;HTU21D;64069;46.396;48.102;2023-06-26T05:58:10;23.07;48.56
75489;HTU21D;64069;46.396;48.102;2023-06-26T06:00:39;23.06;48.43
75489;HTU21D;64069;46.396;48.102;2023-06-26T06:03:06;23.05;48.52
75489;HTU21D;64069;46.396;48.102;2023-06-26T06:05:32;23.17;48.47
75489;HTU21D;64069;46.396;48.102;2023-06-26T06:08:00;23.30;48.03
75489;HTU21D;64069;46.396;48.102;2023-06-26T06:10:26;23.47;47.79
75489;HTU21D;64069;46.396;48.102;2023-06-26T06:12:51;23.53;47.43
75489;HTU21D;64069;46.396;48.102;2023-06-26T06:15:23;23.73;47.01
75489;HTU21D;64069;46.396;48.102;2023-06-26T06:17:49;24.06;46.41
75489;HTU21D;64069;46.396;48.102;2023-06-26T06:20:15;24.41;45.63
75489;HTU21D;64069;46.396;48.102;2023-06-26T06:22:41;24.50;45.35
75489;HTU21D;64069;46.396;48.102;2023-06-26T06:25:07;24.73;45.02
75489;HTU21D;64069;46.396;48.102;2023-06-26T06:27:33;25.03;44.29
75489;HTU21D;64069;46.396;48.102;2023-06-26T06:29:59;25.24;43.85
75489;HTU21D;64069;46.396;48.102;2023-06-26T06:32:25;25.46;43.14
75489;HTU21D;64069;46.396;48.102;2023-06-26T06:34:51;25.44;43.04
75489;HTU21D;64069;46.396;48.102;2023-06-26T06:37:17;25.35;43.01
75489;HTU21D;64069;46.396;48.102;2023-06-26T06:39:43;25.22;43.24
75489;HTU21D;64069;46.396;48.102;2023-06-26T06:42:08;25.24;43.07
75489;HTU21D;64069;46.396;48.102;2023-06-26T06:44:34;25.14;43.10
75489;HTU21D;64069;46.396;48.102;2023-06-26T06:47:00;24.98;43.00
75489;HTU21D;64069;46.396;48.102;2023-06-26T06:49:26;24.78;43.11
75489;HTU21D;64069;46.396;48.102;2023-06-26T06:51:52;24.77;43.13
75489;HTU21D;64069;46.396;48.102;2023-06-26T06:54:18;24.99;42.91
75489;HTU21D;64069;46.396;48.102;2023-06-26T06:56:46;25.18;42.33
75489;HTU21D;64069;46.396;48.102;2023-06-26T06:59:11;25.22;42.39
75489;HTU21D;64069;46.396;48.102;2023-06-26T07:01:39;25.29;42.13
75489;HTU21D;64069;46.396;48.102;2023-06-26T07:04:05;25.24;42.32
75489;HTU21D;64069;46.396;48.102;2023-06-26T07:06:33;25.21;42.41
75489;HTU21D;64069;46.396;48.102;2023-06-26T07:08:59;25.42;42.23
75489;HTU21D;64069;46.396;48.102;2023-06-26T07:11:25;25.51;41.95
75489;HTU21D;64069;46.396;48.102;2023-06-26T07:13:51;25.52;41.84
75489;HTU21D;64069;46.396;48.102;2023-06-26T07:16:17;25.36;41.97
75489;HTU21D;64069;46.396;48.102;2023-06-26T07:18:44;25.21;42.19
75489;HTU21D;64069;46.396;48.102;2023-06-26T07:21:09;25.50;41.85
75489;HTU21D;64069;46.396;48.102;2023-06-26T07:23:39;25.93;41.17
75489;HTU21D;64069;46.396;48.102;2023-06-26T07:26:04;26.23;40.59
75489;HTU21D;64069;46.396;48.102;2023-06-26T07:28:30;26.40;40.17
75489;HTU21D;64069;46.396;48.102;2023-06-26T07:30:56;26.36;40.25
75489;HTU21D;64069;46.396;48.102;2023-06-26T07:33:26;26.27;40.23
75489;HTU21D;64069;46.396;48.102;2023-06-26T07:35:52;26.18;40.17
75489;HTU21D;64069;46.396;48.102;2023-06-26T07:38:17;26.20;40.15
75489;HTU21D;64069;46.396;48.102;2023-06-26T07:40:43;26.36;39.92
75489;HTU21D;64069;46.396;48.102;2023-06-26T07:43:09;26.70;39.35
75489;HTU21D;64069;46.396;48.102;2023-06-26T07:45:35;26.90;38.72
75489;HTU21D;64069;46.396;48.102;2023-06-26T07:48:02;26.81;38.14
75489;HTU21D;64069;46.396;48.102;2023-06-26T07:50:28;26.62;38.38
75489;HTU21D;64069;46.396;48.102;2023-06-26T07:52:54;26.61;38.36
75489;HTU21D;64069;46.396;48.102;2023-06-26T07:55:24;26.58;38.12
75489;HTU21D;64069;46.396;48.102;2023-06-26T07:57:51;26.56;38.04
75489;HTU21D;64069;46.396;48.102;2023-06-26T08:00:17;26.48;38.14
75489;HTU21D;64069;46.396;48.102;2023-06-26T08:02:43;26.49;37.39
75489;HTU21D;64069;46.396;48.102;2023-06-26T08:05:09;26.45;37.62
75489;HTU21D;64069;46.396;48.102;2023-06-26T08:07:39;26.34;37.21
75489;HTU21D;64069;46.396;48.102;2023-06-26T08:10:05;26.38;37.12
75489;HTU21D;64069;46.396;48.102;2023-06-26T08:12:31;26.47;37.04
75489;HTU21D;64069;46.396;48.102;2023-06-26T08:14:57;26.61;36.75
75489;HTU21D;64069;46.396;48.102;2023-06-26T08:17:23;26.73;36.83
75489;HTU21D;64069;46.396;48.102;2023-06-26T08:19:49;26.80;36.44
75489;HTU21D;64069;46.396;48.102;2023-06-26T08:22:15;26.79;36.30
75489;HTU21D;64069;46.396;48.102;2023-06-26T08:24:41;26.84;35.95
75489;HTU21D;64069;46.396;48.102;2023-06-26T08:27:07;26.73;36.16
75489;HTU21D;64069;46.396;48.102;2023-06-26T08:29:33;26.71;35.94
75489;HTU21D;64069;46.396;48.102;2023-06-26T08:31:59;26.72;35.65
75489;HTU21D;64069;46.396;48.102;2023-06-26T08:34:25;26.75;35.79
75489;HTU21D;64069;46.396;48.102;2023-06-26T08:36:51;26.80;35.75
75489;HTU21D;64069;46.396;48.102;2023-06-26T08:39:17;26.82;35.72
75489;HTU21D;64069;46.396;48.102;2023-06-26T08:41:44;26.77;35.66
75489;HTU21D;64069;46.396;48.102;2023-06-26T08:44:12;26.82;35.71
75489;HTU21D;64069;46.396;48.102;2023-06-26T08:46:43;27.01;35.60
75489;HTU21D;64069;46.396;48.102;2023-06-26T08:49:21;27.13;35.59
75489;HTU21D;64069;46.396;48.102;2023-06-26T08:51:59;27.17;35.65
75489;HTU21D;64069;46.396;48.102;2023-06-26T08:54:33;27.17;35.70
75489;HTU21D;64069;46.396;48.102;2023-06-26T08:57:01;27.34;35.91
75489;HTU21D;64069;46.396;48.102;2023-06-26T08:59:27;27.42;35.49
75489;HTU21D;64069;46.396;48.102;2023-06-26T09:01:54;27.49;35.49
75489;HTU21D;64069;46.396;48.102;2023-06-26T09:04:20;27.40;35.46
75489;HTU21D;64069;46.396;48.102;2023-06-26T09:06:46;27.39;35.46
75489;HTU21D;64069;46.396;48.102;2023-06-26T09:09:12;27.44;35.11
75489;HTU21D;64069;46.396;48.102;2023-06-26T09:11:38;27.34;35.15
75489;HTU21D;64069;46.396;48.102;2023-06-26T09:14:08;27.45;35.08
75489;HTU21D;64069;46.396;48.102;2023-06-26T09:16:47;27.52;35.13
75489;HTU21D;64069;46.396;48.102;2023-06-26T09:19:15;27.46;35.02
75489;HTU21D;64069;46.396;48.102;2023-06-26T09:21:42;27.49;34.82
75489;HTU21D;64069;46.396;48.102;2023-06-26T09:24:09;27.45;34.59
75489;HTU21D;64069;46.396;48.102;2023-06-26T09:26:39;27.38;34.62
75489;HTU21D;64069;46.396;48.102;2023-06-26T09:29:06;27.45;34.30
75489;HTU21D;64069;46.396;48.102;2023-06-26T09:31:33;27.38;34.35
75489;HTU21D;64069;46.396;48.102;2023-06-26T09:34:01;27.46;34.32
75489;HTU21D;64069;46.396;48.102;2023-06-26T09:36:30;27.67;33.90
75489;HTU21D;64069;46.396;48.102;2023-06-26T09:39:03;27.70;33.74
75489;HTU21D;64069;46.396;48.102;2023-06-26T09:41:30;27.65;33.47
75489;HTU21D;64069;46.396;48.102;2023-06-26T09:44:01;27.65;33.58
75489;HTU21D;64069;46.396;48.102;2023-06-26T09:46:32;27.57;33.84
75489;HTU21D;64069;46.396;48.102;2023-06-26T09:49:06;27.44;33.99
75489;HTU21D;64069;46.396;48.102;2023-06-26T09:51:33;27.60;33.66
75489;HTU21D;64069;46.396;48.102;2023-06-26T09:54:00;27.64;33.27
75489;HTU21D;64069;46.396;48.102;2023-06-26T09:56:27;27.58;33.62
75489;HTU21D;64069;46.396;48.102;2023-06-26T09:59:01;27.64;33.90
75489;HTU21D;64069;46.396;48.102;2023-06-26T10:01:32;27.76;33.63
75489;HTU21D;64069;46.396;48.102;2023-06-26T10:04:02;27.80;33.90
75489;HTU21D;64069;46.396;48.102;2023-06-26T10:06:33;27.74;33.74
75489;HTU21D;64069;46.396;48.102;2023-06-26T10:09:02;27.91;33.54
75489;HTU21D;64069;46.396;48.102;2023-06-26T10:11:41;28.04;33.48
75489;HTU21D;64069;46.396;48.102;2023-06-26T10:14:07;28.10;33.06
75489;HTU21D;64069;46.396;48.102;2023-06-26T10:16:36;27.96;33.09
75489;HTU21D;64069;46.396;48.102;2023-06-26T10:19:06;27.85;33.47
75489;HTU21D;64069;46.396;48.102;2023-06-26T10:21:34;27.96;33.17
75489;HTU21D;64069;46.396;48.102;2023-06-26T10:24:06;27.83;33.24
75489;HTU21D;64069;46.396;48.102;2023-06-26T10:26:36;27.83;33.16
75489;HTU21D;64069;46.396;48.102;2023-06-26T10:29:03;0.00;33.38
75489;HTU21D;64069;46.396;48.102;2023-06-26T10:31:31;27.87;33.25
75489;HTU21D;64069;46.396;48.102;2023-06-26T10:33:58;27.85;33.31
75489;HTU21D;64069;46.396;48.102;2023-06-26T10:36:29;27.87;33.15
75489;HTU21D;64069;46.396;48.102;2023-06-26T10:38:57;27.70;33.53
75489;HTU21D;64069;46.396;48.102;2023-06-26T10:41:24;27.86;33.22
75489;HTU21D;64069;46.396;48.102;2023-06-26T10:44:11;27.85;33.01
75489;HTU21D;64069;46.396;48.102;2023-06-26T10:46:51;27.90;33.13
75489;HTU21D;64069;46.396;48.102;2023-06-26T10:49:25;28.03;32.51
75489;HTU21D;64069;46.396;48.102;2023-06-26T10:51:52;27.96;32.37
75489;HTU21D;64069;46.396;48.102;2023-06-26T10:54:20;27.91;32.38
75489;HTU21D;64069;46.396;48.102;2023-06-26T10:56:50;27.82;32.46
75489;HTU21D;64069;46.396;48.102;2023-06-26T10:59:20;27.89;32.67
75489;HTU21D;64069;46.396;48.102;2023-06-26T11:02:05;27.85;32.62
75489;HTU21D;64069;46.396;48.102;2023-06-26T11:04:47;27.96;32.79
75489;HTU21D;64069;46.396;48.102;2023-06-26T11:07:19;27.85;32.94
75489;HTU21D;64069;46.396;48.102;2023-06-26T11:09:58;27.89;32.99
75489;HTU21D;64069;46.396;48.102;2023-06-26T11:12:38;28.04;33.02
75489;HTU21D;64069;46.396;48.102;2023-06-26T11:15:15;28.23;32.88
75489;HTU21D;64069;46.396;48.102;2023-06-26T11:17:43;28.16;32.51
75489;HTU21D;64069;46.396;48.102;2023-06-26T11:20:13;28.09;32.45
75489;HTU21D;64069;46.396;48.102;2023-06-26T11:22:41;28.06;32.57
75489;HTU21D;64069;46.396;48.102;2023-06-26T11:25:09;28.13;32.67
75489;HTU21D;64069;46.396;48.102;2023-06-26T11:27:41;28.09;32.57
75489;HTU21D;64069;46.396;48.102;2023-06-26T11:30:11;28.12;32.56
75489;HTU21D;64069;46.396;48.102;2023-06-26T11:32:52;28.04;32.37
75489;HTU21D;64069;46.396;48.102;2023-06-26T11:35:24;27.96;32.41
75489;HTU21D;64069;46.396;48.102;2023-06-26T11:37:57;28.05;32.24
75489;HTU21D;64069;46.396;48.102;2023-06-26T11:40:26;28.13;32.22
75489;HTU21D;64069;46.396;48.102;2023-06-26T11:42:59;28.20;32.28
75489;HTU21D;64069;46.396;48.102;2023-06-26T11:45:31;28.15;32.21
75489;HTU21D;64069;46.396;48.102;2023-06-26T11:47:58;28.21;32.28
75489;HTU21D;64069;46.396;48.102;2023-06-26T11:50:24;28.19;32.54
75489;HTU21D;64069;46.396;48.102;2023-06-26T11:52:55;28.25;32.54
75489;HTU21D;64069;46.396;48.102;2023-06-26T11:55:22;28.06;32.67
75489;HTU21D;64069;46.396;48.102;2023-06-26T11:57:49;28.09;32.93
75489;HTU21D;64069;46.396;48.102;2023-06-26T12:00:16;28.11;33.15
75489;HTU21D;64069;46.396;48.102;2023-06-26T12:02:46;28.03;33.16
75489;HTU21D;64069;46.396;48.102;2023-06-26T12:05:16;27.86;33.12
75489;HTU21D;64069;46.396;48.102;2023-06-26T12:07:43;27.84;33.39
75489;HTU21D;64069;46.396;48.102;2023-06-26T12:10:11;27.78;33.68
75489;HTU21D;64069;46.396;48.102;2023-06-26T12:12:41;27.82;33.92
75489;HTU21D;64069;46.396;48.102;2023-06-26T12:15:16;27.86;33.95
75489;HTU21D;64069;46.396;48.102;2023-06-26T12:17:42;27.88;33.74
75489;HTU21D;64069;46.396;48.102;2023-06-26T12:20:20;27.79;33.77
75489;HTU21D;64069;46.396;48.102;2023-06-26T12:22:47;27.68;33.96
75489;HTU21D;64069;46.396;48.102;2023-06-26T12:25:14;27.60;34.15
75489;HTU21D;64069;46.396;48.102;2023-06-26T12:27:40;27.60;34.02
75489;HTU21D;64069;46.396;48.102;2023-06-26T12:30:07;27.54;34.21
75489;HTU21D;64069;46.396;48.102;2023-06-26T12:32:37;27.63;34.18
75489;HTU21D;64069;46.396;48.102;2023-06-26T12:35:03;27.69;33.96
75489;HTU21D;64069;46.396;48.102;2023-06-26T12:37:37;27.72;33.81
75489;HTU21D;64069;46.396;48.102;2023-06-26T12:40:19;27.71;33.79
75489;HTU21D;64069;46.396;48.102;2023-06-26T12:42:48;27.67;33.73
75489;HTU21D;64069;46.396;48.102;2023-06-26T12:45:15;27.68;33.76
75489;HTU21D;64069;46.396;48.102;2023-06-26T12:47:41;27.61;34.09
75489;HTU21D;64069;46.396;48.102;2023-06-26T12:50:07;27.66;33.72
75489;HTU21D;64069;46.396;48.102;2023-06-26T12:52:34;27.60;33.49
75489;HTU21D;64069;46.396;48.102;2023-06-26T12:54:59;27.57;33.51
75489;HTU21D;64069;46.396;48.102;2023-06-26T12:57:26;27.55;33.70
75489;HTU21D;64069;46.396;48.102;2023-06-26T12:59:52;27.47;33.75
75489;HTU21D;64069;46.396;48.102;2023-06-26T13:02:18;27.40;33.92
75489;HTU21D;64069;46.396;48.102;2023-06-26T13:04:48;27.35;34.14
75489;HTU21D;64069;46.396;48.102;2023-06-26T13:07:14;27.34;34.31
75489;HTU21D;64069;46.396;48.102;2023-06-26T13:09:40;27.39;34.41
75489;HTU21D;64069;46.396;48.102;2023-06-26T13:12:07;27.50;34.44
75489;HTU21D;64069;46.396;48.102;2023-06-26T13:14:33;27.46;34.37
75489;HTU21D;64069;46.396;48.102;2023-06-26T13:17:00;27.45;34.38
75489;HTU21D;64069;46.396;48.102;2023-06-26T13:19:26;27.42;34.27
75489;HTU21D;64069;46.396;48.102;2023-06-26T13:21:56;27.39;34.13
75489;HTU21D;64069;46.396;48.102;2023-06-26T13:24:22;27.31;34.33
75489;HTU21D;64069;46.396;48.102;2023-06-26T13:26:48;27.31;34.08
75489;HTU21D;64069;46.396;48.102;2023-06-26T13:29:14;27.23;34.35
75489;HTU21D;64069;46.396;48.102;2023-06-26T13:31:41;27.16;34.47
75489;HTU21D;64069;46.396;48.102;2023-06-26T13:34:07;27.16;34.47
75489;HTU21D;64069;46.396;48.102;2023-06-26T13:36:36;27.27;34.19
75489;HTU21D;64069;46.396;48.102;2023-06-26T13:39:03;27.25;34.18
75489;HTU21D;64069;46.396;48.102;2023-06-26T13:41:29;27.20;34.32
75489;HTU21D;64069;46.396;48.102;2023-06-26T13:43:55;27.17;34.25
75489;HTU21D;64069;46.396;48.102;2023-06-26T13:46:21;27.14;33.92
75489;HTU21D;64069;46.396;48.102;2023-06-26T13:48:47;27.12;33.84
75489;HTU21D;64069;46.396;48.102;2023-06-26T13:51:13;27.12;33.80
75489;HTU21D;64069;46.396;48.102;2023-06-26T13:53:39;27.09;33.51
75489;HTU21D;64069;46.396;48.102;2023-06-26T13:56:05;27.07;33.41
75489;HTU21D;64069;46.396;48.102;2023-06-26T13:58:31;27.02;33.59
75489;HTU21D;64069;46.396;48.102;2023-06-26T14:00:59;27.01;33.82
75489;HTU21D;64069;46.396;48.102;2023-06-26T14:03:26;27.00;34.15
75489;HTU21D;64069;46.396;48.102;2023-06-26T14:05:54;27.04;33.90
75489;HTU21D;64069;46.396;48.102;2023-06-26T14:08:19;26.95;33.83
75489;HTU21D;64069;46.396;48.102;2023-06-26T14:10:45;26.90;33.92
75489;HTU21D;64069;46.396;48.102;2023-06-26T14:13:11;26.86;33.89
75489;HTU21D;64069;46.396;48.102;2023-06-26T14:15:41;26.89;33.70
75489;HTU21D;64069;46.396;48.102;2023-06-26T14:18:07;26.87;33.84
75489;HTU21D;64069;46.396;48.102;2023-06-26T14:20:33;26.87;34.15
75489;HTU21D;64069;46.396;48.102;2023-06-26T14:22:59;26.85;34.85
75489;HTU21D;64069;46.396;48.102;2023-06-26T14:25:26;26.73;35.38
75489;HTU21D;64069;46.396;48.102;2023-06-26T14:27:57;26.63;35.73
75489;HTU21D;64069;46.396;48.102;2023-06-26T14:30:23;26.56;35.70
75489;HTU21D;64069;46.396;48.102;2023-06-26T14:32:50;26.52;35.76
75489;HTU21D;64069;46.396;48.102;2023-06-26T14:35:16;26.48;35.90
75489;HTU21D;64069;46.396;48.102;2023-06-26T14:37:42;26.46;35.85
75489;HTU21D;64069;46.396;48.102;2023-06-26T14:40:13;26.39;35.89
75489;HTU21D;64069;46.396;48.102;2023-06-26T14:42:38;26.33;35.73
75489;HTU21D;64069;46.396;48.102;2023-06-26T14:45:09;26.24;35.71
75489;HTU21D;64069;46.396;48.102;2023-06-26T14:47:35;26.22;35.89
75489;HTU21D;64069;46.396;48.102;2023-06-26T14:50:01;26.20;35.91
75489;HTU21D;64069;46.396;48.102;2023-06-26T14:52:27;26.17;36.07
75489;HTU21D;64069;46.396;48.102;2023-06-26T14:54:53;26.19;36.53
75489;HTU21D;64069;46.396;48.102;2023-06-26T14:57:25;26.17;36.97
75489;HTU21D;64069;46.396;48.102;2023-06-26T14:59:51;26.13;37.43
75489;HTU21D;64069;46.396;48.102;2023-06-26T15:02:21;26.06;37.84
75489;HTU21D;64069;46.396;48.102;2023-06-26T15:04:47;25.96;38.26
75489;HTU21D;64069;46.396;48.102;2023-06-26T15:07:13;25.86;38.56
75489;HTU21D;64069;46.396;48.102;2023-06-26T15:09:39;25.74;38.89
75489;HTU21D;64069;46.396;48.102;2023-06-26T15:12:06;25.69;39.22
75489;HTU21D;64069;46.396;48.102;2023-06-26T15:14:33;25.63;39.27
75489;HTU21D;64069;46.396;48.102;2023-06-26T15:16:59;25.59;39.29